Time;durP1;ratioP1;P1;durP2;ratioP2;P2;SDS_P1;SDS_P2;PMS_P1;PMS_P2;Temp;Humidity;BMP_temperature;BMP_pressure;BME280_temperature;BME280_humidity;BME280_pressure;Samples;Min_cycle;Max_cycle;Signal;HPM_P1;HPM_P2
2023/09/30 00:01:37;;;;;;;5.20;1.70;;;16.10;99.90;;;;;;5001709;28;20480;-51
2023/09/30 00:04:05;;;;;;;6.67;1.87;;;16.00;95.00;;;;;;4990742;28;20888;-51
2023/09/30 00:06:31;;;;;;;6.80;2.30;;;15.90;25.50;;;;;;4989742;28;20461;-50
2023/09/30 00:08:58;;;;;;;4.60;1.80;;;15.90;26.50;;;;;;4992401;28;20993;-51
2023/09/30 00:11:26;;;;;;;15.63;2.50;;;15.90;23.30;;;;;;4995139;28;20445;-52
2023/09/30 00:13:53;;;;;;;3.30;1.83;;;15.90;23.20;;;;;;4995176;28;20447;-52
2023/09/30 00:16:19;;;;;;;9.30;2.67;;;15.90;20.00;;;;;;5000573;28;20467;-50
2023/09/30 00:18:46;;;;;;;8.40;2.70;;;15.80;28.00;;;;;;4993791;28;20535;-51
2023/09/30 00:21:14;;;;;;;8.50;2.47;;;15.80;37.00;;;;;;4988308;28;20468;-51
2023/09/30 00:23:41;;;;;;;7.27;2.50;;;15.70;46.30;;;;;;4991782;28;20538;-51
2023/09/30 00:26:08;;;;;;;8.23;3.13;;;15.60;58.70;;;;;;5001557;28;20445;-51
2023/09/30 00:28:35;;;;;;;7.40;2.70;;;15.60;63.70;;;;;;4990978;28;20496;-51
2023/09/30 00:31:02;;;;;;;7.67;2.60;;;15.50;64.90;;;;;;4984549;28;20465;-50
2023/09/30 00:33:29;;;;;;;7.80;2.50;;;15.40;70.00;;;;;;4994708;28;20556;-51
2023/09/30 00:35:55;;;;;;;8.67;4.00;;;15.30;79.90;;;;;;4991784;28;20496;-52
2023/09/30 00:38:23;;;;;;;7.40;3.00;;;15.20;84.90;;;;;;4987337;28;20485;-52
2023/09/30 00:40:50;;;;;;;10.97;3.43;;;15.10;82.00;;;;;;4990590;28;20468;-51
2023/09/30 00:43:20;;;;;;;11.10;3.90;;;15.10;86.00;;;;;;5009758;28;20494;-51
2023/09/30 00:45:49;;;;;;;10.63;3.70;;;15.00;87.60;;;;;;5003582;28;21028;-51
2023/09/30 00:48:17;;;;;;;11.10;3.47;;;15.00;93.30;;;;;;5003904;28;20482;-51
2023/09/30 00:50:44;;;;;;;12.10;3.97;;;14.90;88.70;;;;;;4999954;28;20979;-52
2023/09/30 00:53:10;;;;;;;14.40;4.33;;;14.90;94.00;;;;;;5001146;28;20855;-50
2023/09/30 00:55:37;;;;;;;12.47;3.33;;;14.80;93.60;;;;;;4999809;28;20453;-50
2023/09/30 00:58:04;;;;;;;9.37;3.60;;;14.80;91.70;;;;;;4995765;28;20491;-51
2023/09/30 01:00:31;;;;;;;12.73;3.60;;;14.80;91.60;;;;;;4984885;28;20538;-52
2023/09/30 01:03:03;;;;;;;9.57;3.73;;;14.70;93.20;;;;;;4992852;28;20472;-52
2023/09/30 01:05:30;;;;;;;10.03;3.67;;;14.70;86.70;;;;;;4998350;28;20956;-51
2023/09/30 01:07:57;;;;;;;16.60;3.97;;;14.60;86.80;;;;;;5001819;28;20444;-51
2023/09/30 01:10:23;;;;;;;15.00;4.57;;;14.50;92.20;;;;;;4992769;28;20523;-51
2023/09/30 01:12:50;;;;;;;13.10;4.03;;;14.50;90.10;;;;;;4990105;28;20519;-50
2023/09/30 01:15:16;;;;;;;13.00;4.50;;;14.50;85.00;;;;;;4994946;28;20813;-51
2023/09/30 01:17:43;;;;;;;14.33;4.60;;;14.40;86.90;;;;;;4996093;28;20541;-51
2023/09/30 01:20:19;;;;;;;10.70;3.83;;;14.40;84.00;;;;;;4990380;28;20527;-51
2023/09/30 01:22:47;;;;;;;14.37;4.10;;;14.30;84.40;;;;;;4990917;28;20563;-51
2023/09/30 01:25:14;;;;;;;10.03;4.70;;;14.20;79.80;;;;;;4990871;28;20460;-51
2023/09/30 01:27:40;;;;;;;15.10;4.57;;;14.30;77.60;;;;;;4989098;28;20940;-51
2023/09/30 01:30:10;;;;;;;14.67;4.20;;;14.20;73.70;;;;;;4995476;28;20477;-51
2023/09/30 01:32:37;;;;;;;15.90;4.10;;;14.20;66.20;;;;;;4997372;28;20921;-51
2023/09/30 01:35:04;;;;;;;10.53;3.70;;;14.20;68.60;;;;;;4992923;28;20464;-51
2023/09/30 01:37:31;;;;;;;11.53;4.33;;;14.10;65.20;;;;;;4992535;28;20457;-51
2023/09/30 01:39:59;;;;;;;12.03;4.10;;;14.10;63.40;;;;;;4994046;28;20484;-51
2023/09/30 01:42:25;;;;;;;10.17;3.50;;;14.00;60.90;;;;;;4991604;28;20484;-51
2023/09/30 01:44:52;;;;;;;20.67;5.60;;;13.90;56.90;;;;;;4990103;28;20507;-51
2023/09/30 01:47:19;;;;;;;12.93;4.00;;;13.90;51.20;;;;;;4999909;28;20947;-51
2023/09/30 01:49:46;;;;;;;23.73;5.40;;;13.90;48.10;;;;;;4994471;28;20545;-51
2023/09/30 01:52:13;;;;;;;24.03;4.37;;;13.80;44.70;;;;;;4994861;28;20820;-51
2023/09/30 01:54:39;;;;;;;15.90;3.97;;;13.70;46.80;;;;;;5002859;28;20539;-51
2023/09/30 01:57:07;;;;;;;11.00;3.70;;;13.60;44.30;;;;;;4994380;28;20529;-51
2023/09/30 01:59:34;;;;;;;11.73;3.50;;;13.60;41.90;;;;;;4996124;28;20910;-51
2023/09/30 02:02:01;;;;;;;23.63;4.57;;;13.60;34.10;;;;;;4991746;28;20472;-51
2023/09/30 02:04:28;;;;;;;10.13;3.70;;;13.60;34.20;;;;;;5000273;28;20445;-51
2023/09/30 02:06:54;;;;;;;11.77;4.10;;;13.50;34.10;;;;;;4998389;28;20464;-50
2023/09/30 02:09:21;;;;;;;13.87;3.83;;;13.50;27.30;;;;;;4990943;28;20480;-51
2023/09/30 02:11:47;;;;;;;13.80;3.60;;;13.50;26.80;;;;;;4997520;28;20472;-51
2023/09/30 02:14:15;;;;;;;9.73;3.10;;;13.40;26.00;;;;;;5006497;28;20452;-51
2023/09/30 02:16:42;;;;;;;12.27;3.67;;;13.40;25.00;;;;;;5007939;28;20472;-51
2023/09/30 02:19:10;;;;;;;12.63;4.40;;;13.40;22.30;;;;;;4990005;28;20492;-51
2023/09/30 02:21:37;;;;;;;10.13;3.83;;;13.40;74.00;;;;;;4984340;28;20492;-50
2023/09/30 02:24:06;;;;;;;9.00;3.70;;;13.30;20.20;;;;;;4999278;28;20843;-51
2023/09/30 02:26:32;;;;;;;12.67;4.07;;;13.30;94.30;;;;;;4991532;28;20461;-51
2023/09/30 02:28:59;;;;;;;9.00;3.80;;;13.20;99.90;;;;;;4994120;28;21064;-51
2023/09/30 02:31:27;;;;;;;12.43;4.43;;;13.20;99.90;;;;;;5010483;28;20487;-51
2023/09/30 02:33:54;;;;;;;9.63;3.50;;;13.20;99.90;;;;;;4992646;28;20503;-51
2023/09/30 02:36:20;;;;;;;13.13;3.30;;;13.20;99.90;;;;;;4992562;28;20961;-51
2023/09/30 02:38:47;;;;;;;9.13;3.13;;;13.20;99.90;;;;;;4993819;28;20484;-51
2023/09/30 02:41:13;;;;;;;13.17;4.00;;;13.20;99.90;;;;;;5003090;28;20942;-50
2023/09/30 02:43:40;;;;;;;11.43;4.00;;;13.20;99.90;;;;;;5005017;28;20488;-52
2023/09/30 02:46:08;;;;;;;11.70;3.40;;;13.10;99.90;;;;;;4994267;28;20511;-51
2023/09/30 02:48:36;;;;;;;13.97;4.57;;;13.10;99.90;;;;;;4993957;28;20488;-50
2023/09/30 02:51:03;;;;;;;8.87;3.97;;;13.00;99.90;;;;;;4993416;28;20624;-51
2023/09/30 02:53:29;;;;;;;10.40;4.07;;;13.00;99.90;;;;;;5001424;28;20431;-51
2023/09/30 02:55:59;;;;;;;12.20;4.00;;;13.00;99.90;;;;;;5005742;28;20526;-50
2023/09/30 02:58:26;;;;;;;16.27;4.60;;;13.00;99.90;;;;;;4998982;28;20488;-50
2023/09/30 03:00:53;;;;;;;15.67;3.97;;;13.00;99.90;;;;;;4994846;28;20475;-50
2023/09/30 03:03:21;;;;;;;13.20;3.40;;;13.00;99.90;;;;;;4994848;28;20848;-50
2023/09/30 03:05:49;;;;;;;8.90;4.20;;;13.00;99.90;;;;;;4992015;28;20479;-52
2023/09/30 03:08:16;;;;;;;10.83;4.00;;;13.00;99.90;;;;;;5001791;28;20451;-50
2023/09/30 03:10:43;;;;;;;13.70;3.97;;;12.90;99.90;;;;;;5002473;28;20471;-51
2023/09/30 03:13:09;;;;;;;7.33;4.00;;;12.80;99.90;;;;;;4984588;28;20465;-51
2023/09/30 03:15:37;;;;;;;11.07;3.50;;;12.90;99.90;;;;;;4996779;28;20548;-50
2023/09/30 03:18:04;;;;;;;16.70;3.87;;;12.80;99.90;;;;;;4992562;28;20468;-50
2023/09/30 03:20:31;;;;;;;11.90;3.90;;;12.80;99.90;;;;;;4993099;28;20460;-50
2023/09/30 03:22:59;;;;;;;16.57;4.73;;;12.80;99.90;;;;;;5003726;28;20480;-52
2023/09/30 03:25:26;;;;;;;10.43;4.60;;;12.70;99.90;;;;;;4996238;28;20472;-50
2023/09/30 03:27:53;;;;;;;16.57;4.30;;;12.70;99.90;;;;;;4994047;28;20476;-50
2023/09/30 03:30:20;;;;;;;19.83;5.47;;;12.70;99.90;;;;;;4990550;28;20484;-51
2023/09/30 03:32:47;;;;;;;14.93;5.10;;;12.70;99.90;;;;;;4993220;28;20599;-50
2023/09/30 03:35:16;;;;;;;17.97;4.20;;;12.70;99.90;;;;;;4994290;28;20482;-50
2023/09/30 03:37:43;;;;;;;14.83;4.00;;;12.70;99.90;;;;;;4992150;28;20555;-51
2023/09/30 03:40:14;;;;;;;17.50;4.40;;;12.70;99.90;;;;;;4993291;28;20570;-51
2023/09/30 03:42:43;;;;;;;17.60;4.83;;;12.70;99.90;;;;;;4992257;28;20460;-51
2023/09/30 03:45:10;;;;;;;13.53;3.60;;;12.70;99.90;;;;;;4992944;28;21101;-51
2023/09/30 03:47:38;;;;;;;11.00;3.80;;;12.70;99.90;;;;;;4997924;28;20448;-50
2023/09/30 03:50:12;;;;;;;17.07;4.20;;;12.70;99.90;;;;;;4992806;28;20460;-51
2023/09/30 03:52:39;;;;;;;16.73;4.30;;;12.60;99.90;;;;;;4993326;28;20830;-52
2023/09/30 03:55:06;;;;;;;12.10;4.13;;;12.60;99.90;;;;;;5001268;28;20511;-50
2023/09/30 03:57:34;;;;;;;8.50;3.90;;;12.60;99.90;;;;;;5000475;28;20856;-51
2023/09/30 04:00:02;;;;;;;10.33;4.10;;;12.60;99.90;;;;;;4995417;28;20567;-50
2023/09/30 04:02:28;;;;;;;14.60;3.70;;;12.60;99.90;;;;;;4992414;28;20515;-52
2023/09/30 04:04:56;;;;;;;12.70;4.37;;;12.50;99.90;;;;;;4995223;28;20463;-50
2023/09/30 04:07:27;;;;;;;15.60;4.30;;;12.50;99.90;;;;;;4999388;28;20444;-51
2023/09/30 04:09:54;;;;;;;9.43;4.13;;;12.40;99.90;;;;;;4992593;28;20579;-51
2023/09/30 04:12:21;;;;;;;10.10;3.80;;;12.40;99.90;;;;;;4992460;28;20491;-51
2023/09/30 04:14:49;;;;;;;13.73;4.83;;;12.30;99.90;;;;;;4994308;28;20505;-50
2023/09/30 04:17:16;;;;;;;13.27;4.17;;;12.30;99.90;;;;;;5001631;28;20449;-52
2023/09/30 04:19:42;;;;;;;15.13;4.33;;;12.30;99.90;;;;;;4992332;28;20502;-50
2023/09/30 04:22:09;;;;;;;13.70;4.23;;;12.20;99.90;;;;;;4990367;28;20469;-51
2023/09/30 04:24:36;;;;;;;13.87;3.80;;;12.20;99.90;;;;;;4993337;28;20496;-50
2023/09/30 04:27:04;;;;;;;12.70;4.20;;;12.20;99.90;;;;;;4989289;28;20465;-51
2023/09/30 04:29:31;;;;;;;13.97;3.97;;;12.20;99.90;;;;;;4992109;28;20524;-51
2023/09/30 04:31:59;;;;;;;18.40;5.00;;;12.20;99.90;;;;;;4992151;28;20444;-51
2023/09/30 04:34:27;;;;;;;11.20;3.90;;;12.10;99.90;;;;;;4985102;28;20889;-50
2023/09/30 04:36:54;;;;;;;13.20;4.30;;;12.10;99.90;;;;;;4991405;28;20467;-51
2023/09/30 04:39:20;;;;;;;11.93;3.83;;;12.10;99.90;;;;;;5021971;22;20494;-51
2023/09/30 04:41:47;;;;;;;13.33;4.40;;;12.10;99.90;;;;;;5047205;28;20519;-52
2023/09/30 04:44:14;;;;;;;11.60;4.07;;;12.00;99.90;;;;;;5047247;28;20490;-51
2023/09/30 04:46:40;;;;;;;12.73;4.20;;;12.00;99.90;;;;;;5050502;28;20469;-52
2023/09/30 04:49:09;;;;;;;14.17;5.17;;;12.00;99.90;;;;;;5047518;28;20572;-51
2023/09/30 04:51:36;;;;;;;11.33;3.73;;;12.00;99.90;;;;;;5042734;28;20466;-51
2023/09/30 04:54:03;;;;;;;10.20;4.53;;;12.00;99.90;;;;;;5049267;28;20454;-52
2023/09/30 04:56:30;;;;;;;12.80;3.90;;;11.90;99.90;;;;;;5044351;28;20493;-51
2023/09/30 04:58:58;;;;;;;8.90;4.70;;;12.00;99.90;;;;;;5049379;28;20481;-52
2023/09/30 05:01:25;;;;;;;17.73;5.53;;;11.90;99.90;;;;;;5050699;28;20442;-52
2023/09/30 05:03:51;;;;;;;12.37;4.57;;;11.90;99.90;;;;;;5050468;28;20478;-52
2023/09/30 05:06:19;;;;;;;9.60;3.83;;;11.90;99.90;;;;;;5048373;28;20458;-52
2023/09/30 05:08:46;;;;;;;20.90;5.90;;;11.80;99.90;;;;;;5051035;28;20442;-52
2023/09/30 05:11:12;;;;;;;18.60;5.83;;;11.80;99.90;;;;;;5048834;28;20462;-51
2023/09/30 05:13:39;;;;;;;16.17;5.53;;;11.80;99.90;;;;;;5046503;28;20519;-51
2023/09/30 05:16:07;;;;;;;20.37;4.67;;;11.80;99.90;;;;;;5050464;28;20951;-52
2023/09/30 05:18:34;;;;;;;12.50;4.50;;;11.80;99.90;;;;;;5050509;28;20991;-51
2023/09/30 05:21:01;;;;;;;16.00;4.77;;;11.80;99.90;;;;;;5047510;28;20500;-51
2023/09/30 05:23:28;;;;;;;17.67;4.40;;;11.70;99.90;;;;;;5046248;28;20842;-51
2023/09/30 05:25:55;;;;;;;8.60;3.50;;;11.70;99.90;;;;;;5045027;28;20471;-52
2023/09/30 05:28:22;;;;;;;17.97;4.83;;;11.80;99.90;;;;;;5047474;28;20487;-52
2023/09/30 05:30:50;;;;;;;10.20;4.60;;;11.80;99.90;;;;;;5050577;28;21040;-51
2023/09/30 05:33:17;;;;;;;15.43;5.07;;;11.80;99.90;;;;;;5049513;28;20454;-52
2023/09/30 05:35:43;;;;;;;14.00;4.83;;;11.80;99.90;;;;;;5049854;28;20464;-52
2023/09/30 05:38:10;;;;;;;21.93;5.20;;;11.80;99.90;;;;;;5049029;28;20458;-53
2023/09/30 05:40:38;;;;;;;11.13;4.03;;;11.80;99.90;;;;;;5037113;28;20951;-51
2023/09/30 05:43:06;;;;;;;12.97;4.17;;;11.80;99.90;;;;;;5049475;28;20211;-51
2023/09/30 05:45:35;;;;;;;11.30;3.90;;;11.80;99.90;;;;;;5047414;28;20457;-52
2023/09/30 05:48:05;;;;;;;14.60;4.50;;;11.90;99.90;;;;;;5046402;28;20466;-55
2023/09/30 05:50:34;;;;;;;14.80;4.60;;;11.90;99.90;;;;;;5049715;28;20535;-56
2023/09/30 05:53:01;;;;;;;13.03;4.20;;;11.90;99.90;;;;;;5046205;28;20466;-51
2023/09/30 05:55:27;;;;;;;18.07;4.93;;;12.00;99.90;;;;;;5042917;28;20460;-51
2023/09/30 05:57:56;;;;;;;12.70;4.20;;;12.00;99.90;;;;;;5041132;28;20469;-52
2023/09/30 06:00:24;;;;;;;10.87;4.27;;;12.00;99.90;;;;;;5046245;28;20556;-52
2023/09/30 06:02:51;;;;;;;18.50;5.50;;;12.10;99.90;;;;;;5049420;28;20462;-52
2023/09/30 06:05:18;;;;;;;17.33;5.00;;;12.10;99.90;;;;;;5048856;28;20581;-52
2023/09/30 06:07:45;;;;;;;12.17;4.87;;;12.20;99.90;;;;;;5048857;28;20484;-53
2023/09/30 06:10:12;;;;;;;11.67;3.83;;;12.30;99.90;;;;;;5048511;28;20473;-52
2023/09/30 06:12:40;;;;;;;11.43;4.30;;;12.30;99.90;;;;;;5052995;28;20496;-52
2023/09/30 06:15:09;;;;;;;11.83;4.50;;;12.40;99.90;;;;;;5051707;28;20947;-52
2023/09/30 06:17:35;;;;;;;18.80;4.97;;;12.40;99.90;;;;;;5052015;28;20912;-52
2023/09/30 06:20:08;;;;;;;15.60;5.00;;;12.50;99.90;;;;;;5047930;28;20485;-51
2023/09/30 06:22:35;;;;;;;13.90;4.20;;;12.50;99.90;;;;;;5051829;28;20520;-52
2023/09/30 06:25:02;;;;;;;17.33;5.37;;;12.50;99.90;;;;;;5047047;28;20485;-53
2023/09/30 06:27:28;;;;;;;15.13;4.90;;;12.50;99.90;;;;;;5054248;28;20525;-51
2023/09/30 06:29:56;;;;;;;13.33;5.00;;;12.50;99.90;;;;;;5051376;28;21057;-53
2023/09/30 06:32:23;;;;;;;15.67;5.17;;;12.60;99.90;;;;;;5046100;28;20457;-53
2023/09/30 06:34:50;;;;;;;15.43;5.10;;;12.60;99.90;;;;;;5050875;28;20457;-51
2023/09/30 06:37:18;;;;;;;15.00;5.30;;;12.60;99.90;;;;;;5046384;28;20817;-51
2023/09/30 06:39:45;;;;;;;14.47;4.90;;;12.60;99.90;;;;;;5051206;28;20505;-53
2023/09/30 06:42:11;;;;;;;17.93;5.43;;;12.70;99.90;;;;;;5050475;28;20454;-52
2023/09/30 06:44:38;;;;;;;21.20;4.30;;;12.70;99.90;;;;;;5042327;28;20486;-53
2023/09/30 06:47:05;;;;;;;15.70;5.17;;;12.70;99.90;;;;;;5046308;28;20453;-51
2023/09/30 06:49:34;;;;;;;19.77;5.07;;;12.80;99.90;;;;;;5047665;28;20510;-51
2023/09/30 06:52:02;;;;;;;17.47;4.50;;;12.80;99.90;;;;;;5049233;28;20466;-51
2023/09/30 06:54:29;;;;;;;15.57;5.20;;;12.90;99.90;;;;;;5052519;28;20465;-51
2023/09/30 06:56:56;;;;;;;14.13;5.07;;;13.00;99.90;;;;;;5051108;28;20492;-52
2023/09/30 06:59:24;;;;;;;16.00;5.40;;;13.10;99.90;;;;;;5052793;28;20485;-52
2023/09/30 07:01:51;;;;;;;15.73;4.70;;;13.20;99.90;;;;;;5052247;28;20461;-53
2023/09/30 07:04:18;;;;;;;16.43;5.40;;;13.30;99.90;;;;;;5050752;28;20477;-51
2023/09/30 07:06:46;;;;;;;18.40;6.00;;;13.40;99.90;;;;;;5046904;28;20470;-52
2023/09/30 07:09:12;;;;;;;16.30;5.17;;;13.40;99.90;;;;;;5052142;28;21049;-52
2023/09/30 07:11:39;;;;;;;14.27;4.40;;;13.50;99.90;;;;;;5057872;28;20464;-52
2023/09/30 07:14:06;;;;;;;18.90;4.57;;;13.60;99.90;;;;;;5048776;28;20462;-52
2023/09/30 07:16:32;;;;;;;24.17;4.83;;;13.60;99.90;;;;;;5051769;28;20878;-52
2023/09/30 07:18:59;;;;;;;13.83;4.83;;;13.60;99.90;;;;;;5050476;28;20481;-52
2023/09/30 07:21:26;;;;;;;18.30;5.87;;;13.70;99.90;;;;;;5046750;28;20462;-51
2023/09/30 07:23:53;;;;;;;16.83;4.33;;;13.80;99.90;;;;;;5042965;28;21058;-51
2023/09/30 07:26:24;;;;;;;20.63;5.17;;;13.80;99.90;;;;;;5043597;28;20461;-51
2023/09/30 07:28:51;;;;;;;14.17;4.70;;;13.90;76.50;;;;;;5051754;28;20470;-54
2023/09/30 07:31:18;;;;;;;19.43;4.47;;;13.90;30.50;;;;;;5042440;28;20644;-54
2023/09/30 07:33:44;;;;;;;19.60;4.97;;;13.90;25.70;;;;;;5051372;28;21150;-54
2023/09/30 07:36:13;;;;;;;14.03;4.23;;;14.00;22.80;;;;;;5051397;28;20462;-55
2023/09/30 07:38:40;;;;;;;17.30;4.47;;;13.90;29.90;;;;;;5049330;28;20462;-54
2023/09/30 07:41:10;;;;;;;26.57;5.80;;;14.00;31.20;;;;;;5051424;28;20486;-55
2023/09/30 07:43:36;;;;;;;16.90;5.20;;;14.00;37.40;;;;;;5051402;28;20457;-53
2023/09/30 07:46:06;;;;;;;27.60;5.30;;;14.00;36.80;;;;;;5050963;28;20485;-54
2023/09/30 07:48:33;;;;;;;12.50;4.90;;;14.00;39.40;;;;;;5043776;28;20510;-56
2023/09/30 07:50:59;;;;;;;15.17;4.67;;;14.00;39.90;;;;;;5048907;28;20466;-55
2023/09/30 07:53:26;;;;;;;19.77;5.93;;;14.00;39.40;;;;;;5052066;28;20738;-53
2023/09/30 07:55:54;;;;;;;22.77;4.87;;;14.10;39.90;;;;;;5049407;28;20458;-54
2023/09/30 07:58:22;;;;;;;21.03;6.73;;;14.10;37.70;;;;;;5046224;28;20464;-54
2023/09/30 08:00:48;;;;;;;20.13;8.20;;;14.10;40.20;;;;;;5051040;28;20543;-55
2023/09/30 08:03:15;;;;;;;33.27;12.33;;;14.20;36.10;;;;;;5051577;28;20437;-54
2023/09/30 08:05:42;;;;;;;29.73;10.00;;;14.20;33.60;;;;;;5051376;28;20478;-55
2023/09/30 08:08:09;;;;;;;30.93;15.00;;;14.20;44.30;;;;;;5048601;28;20500;-54
2023/09/30 08:10:36;;;;;;;22.03;8.87;;;14.20;45.20;;;;;;5044598;28;20477;-54
2023/09/30 08:13:03;;;;;;;18.80;7.30;;;14.20;48.60;;;;;;5047405;28;20462;-53
2023/09/30 08:15:31;;;;;;;25.00;9.00;;;14.30;44.20;;;;;;5038947;28;20461;-54
2023/09/30 08:17:58;;;;;;;21.57;7.60;;;14.30;46.30;;;;;;5044024;28;20458;-54
2023/09/30 08:20:25;;;;;;;26.03;8.27;;;14.40;42.80;;;;;;5047801;28;21066;-55
2023/09/30 08:22:51;;;;;;;15.90;5.47;;;14.40;50.10;;;;;;5052103;28;20449;-55
2023/09/30 08:25:18;;;;;;;26.67;7.93;;;14.50;47.30;;;;;;5047915;28;20539;-56
2023/09/30 08:27:49;;;;;;;18.37;5.47;;;14.30;56.70;;;;;;5047603;28;21089;-54
2023/09/30 08:30:16;;;;;;;13.63;5.60;;;14.50;54.70;;;;;;5044947;28;20486;-55
2023/09/30 08:32:43;;;;;;;23.13;5.87;;;14.40;56.60;;;;;;5043953;28;21018;-55
2023/09/30 08:35:11;;;;;;;15.53;4.63;;;14.40;55.20;;;;;;5047019;28;20527;-55
2023/09/30 08:37:37;;;;;;;20.13;5.20;;;14.40;48.70;;;;;;5047312;28;20486;-56
2023/09/30 08:40:05;;;;;;;21.20;5.07;;;14.50;48.30;;;;;;5045608;28;20559;-53
2023/09/30 08:42:34;;;;;;;22.17;6.57;;;14.50;52.70;;;;;;5046848;28;20524;-55
2023/09/30 08:45:01;;;;;;;19.70;5.90;;;14.60;53.90;;;;;;5039899;28;20481;-55
2023/09/30 08:47:28;;;;;;;14.23;4.60;;;14.80;58.30;;;;;;5046573;28;20458;-54
2023/09/30 08:50:05;;;;;;;18.80;5.37;;;14.90;74.50;;;;;;5044035;28;20477;-53
2023/09/30 08:52:33;;;;;;;22.30;5.93;;;15.00;69.80;;;;;;5048553;28;20550;-55
2023/09/30 08:54:59;;;;;;;26.97;4.67;;;15.10;69.60;;;;;;5049611;28;20445;-53
2023/09/30 08:57:27;;;;;;;15.70;5.17;;;15.20;73.80;;;;;;5049048;28;20457;-53
2023/09/30 08:59:54;;;;;;;26.97;5.93;;;15.20;79.00;;;;;;5043118;28;20477;-56
2023/09/30 09:02:21;;;;;;;17.20;4.47;;;15.30;82.00;;;;;;5039138;28;20458;-53
2023/09/30 09:04:49;;;;;;;16.17;3.63;;;15.40;77.10;;;;;;5052261;28;20478;-55
2023/09/30 09:07:17;;;;;;;21.63;4.97;;;15.70;86.30;;;;;;5045438;28;20948;-53
2023/09/30 09:10:04;;;;;;;17.37;4.73;;;16.10;99.90;;;;;;5049929;28;20482;-54
2023/09/30 09:12:31;;;;;;;28.63;5.43;;;16.20;99.90;;;;;;5049131;28;20454;-55
2023/09/30 09:14:58;;;;;;;13.87;4.90;;;16.30;99.90;;;;;;5048806;28;20955;-53
2023/09/30 09:17:24;;;;;;;11.03;3.60;;;16.40;99.90;;;;;;5046047;28;20870;-53
2023/09/30 09:20:00;;;;;;;17.43;4.70;;;16.50;99.90;;;;;;5048583;28;20546;-54
2023/09/30 09:22:40;;;;;;;22.67;5.17;;;16.60;99.90;;;;;;5040842;28;20526;-53
2023/09/30 09:25:07;;;;;;;15.37;4.70;;;16.80;99.90;;;;;;5051027;28;20495;-54
2023/09/30 09:27:35;;;;;;;19.93;4.23;;;16.90;99.90;;;;;;5046606;28;20464;-54
2023/09/30 09:30:15;;;;;;;18.90;4.57;;;16.80;99.90;;;;;;5043733;28;20481;-54
2023/09/30 09:33:02;;;;;;;14.70;3.77;;;16.90;99.90;;;;;;5046324;28;20461;-54
2023/09/30 09:35:32;;;;;;;14.23;4.53;;;16.90;1.40;;;;;;5045928;28;20948;-54
2023/09/30 09:38:01;;;;;;;16.50;5.10;;;16.90;99.90;;;;;;5040683;28;20474;-55
2023/09/30 09:40:29;;;;;;;15.50;4.57;;;16.80;99.90;;;;;;5045710;28;20542;-54
2023/09/30 09:42:56;;;;;;;13.17;4.07;;;17.10;99.90;;;;;;5040142;28;20458;-55
2023/09/30 09:45:26;;;;;;;18.93;4.43;;;17.40;99.90;;;;;;5042343;28;20478;-55
2023/09/30 09:47:54;;;;;;;13.93;4.23;;;17.50;99.90;;;;;;5049777;28;20841;-54
2023/09/30 09:50:21;;;;;;;15.93;5.23;;;18.90;99.90;;;;;;5049289;28;20477;-55
2023/09/30 09:52:51;;;;;;;19.17;5.20;;;19.30;30.40;;;;;;5048026;28;20468;-54
2023/09/30 09:55:20;;;;;;;21.37;4.50;;;18.90;23.60;;;;;;5058288;28;20453;-54
2023/09/30 09:57:49;;;;;;;26.83;4.87;;;19.20;49.80;;;;;;5057330;28;20470;-55
2023/09/30 10:00:18;;;;;;;22.60;3.83;;;18.90;42.60;;;;;;5042559;28;20896;-54
2023/09/30 10:02:45;;;;;;;15.73;4.40;;;18.50;45.30;;;;;;5043879;28;20469;-53
2023/09/30 10:05:13;;;;;;;11.87;4.13;;;18.70;30.60;;;;;;5054471;28;20543;-54
2023/09/30 10:07:44;;;;;;;15.97;4.57;;;18.90;53.60;;;;;;5057682;28;20462;-55
2023/09/30 10:10:15;;;;;;;11.50;3.43;;;18.70;50.30;;;;;;5053460;28;20824;-55
2023/09/30 10:12:43;;;;;;;13.03;3.97;;;18.70;51.20;;;;;;5050107;28;20951;-53
2023/09/30 10:15:40;;;;;;;11.33;3.97;;;18.70;49.80;;;;;;5049895;28;20458;-54
2023/09/30 10:18:09;;;;;;;19.00;4.40;;;18.30;50.60;;;;;;5047585;28;20541;-54
2023/09/30 10:20:37;;;;;;;12.53;4.10;;;18.40;54.80;;;;;;5051686;28;20535;-55
2023/09/30 10:23:24;;;;;;;17.37;4.70;;;18.20;43.50;;;;;;5055879;28;20466;-54
2023/09/30 10:25:55;;;;;;;16.40;4.87;;;19.00;66.40;;;;;;5061794;28;20572;-54
2023/09/30 10:28:39;;;;;;;12.50;3.37;;;18.90;73.70;;;;;;5047417;28;20453;-54
2023/09/30 10:31:09;;;;;;;13.43;3.53;;;18.80;85.50;;;;;;5048165;28;20557;-54
2023/09/30 10:33:36;;;;;;;11.73;3.53;;;18.60;85.70;;;;;;5061999;28;20461;-55
2023/09/30 10:36:03;;;;;;;14.47;3.70;;;18.60;77.80;;;;;;5048226;28;20955;-54
2023/09/30 10:38:43;;;;;;;12.00;3.50;;;18.40;69.70;;;;;;5064717;28;20452;-54
2023/09/30 10:41:11;;;;;;;13.83;3.53;;;18.10;75.50;;;;;;5029380;22;20926;-50
2023/09/30 10:43:41;;;;;;;25.33;5.33;;;18.20;57.40;;;;;;5025583;28;20467;-51
2023/09/30 10:46:34;;;;;;;14.30;3.10;;;18.30;66.30;;;;;;5010302;28;20522;-49
2023/09/30 10:49:18;;;;;;;12.80;3.67;;;18.30;65.40;;;;;;5022193;28;20843;-50
2023/09/30 10:51:46;;;;;;;18.40;3.57;;;18.50;77.70;;;;;;5016187;28;20555;-49
2023/09/30 10:54:14;;;;;;;12.67;3.80;;;18.40;78.70;;;;;;5007625;28;20449;-50
2023/09/30 10:56:40;;;;;;;13.87;3.67;;;19.00;89.00;;;;;;5008321;28;20463;-49
2023/09/30 10:59:09;;;;;;;14.43;3.50;;;18.80;99.90;;;;;;5020416;28;20513;-50
2023/09/30 11:01:36;;;;;;;8.37;2.90;;;18.70;99.90;;;;;;5017792;28;20471;-50
2023/09/30 11:04:05;;;;;;;16.10;3.53;;;18.60;99.90;;;;;;5011836;28;20478;-49
2023/09/30 11:06:32;;;;;;;22.50;3.10;;;18.40;99.90;;;;;;5013615;28;20574;-49
2023/09/30 11:09:00;;;;;;;12.50;3.03;;;18.20;99.90;;;;;;5013233;28;20487;-50
2023/09/30 11:11:43;;;;;;;13.07;2.87;;;18.00;99.90;;;;;;5009275;28;20456;-49
2023/09/30 11:14:26;;;;;;;12.30;3.00;;;17.80;99.90;;;;;;5004481;28;20460;-50
2023/09/30 11:16:54;;;;;;;13.83;3.03;;;17.90;90.50;;;;;;5010575;28;20456;-50
2023/09/30 11:19:22;;;;;;;18.63;4.23;;;18.00;90.70;;;;;;5003709;28;20566;-49
2023/09/30 11:21:50;;;;;;;8.93;2.40;;;18.10;90.00;;;;;;5009542;28;20476;-49
2023/09/30 11:24:17;;;;;;;14.80;2.83;;;18.10;99.90;;;;;;5013062;28;20540;-50
2023/09/30 11:26:44;;;;;;;11.60;3.50;;;18.00;99.90;;;;;;5009512;28;20487;-49
2023/09/30 11:29:13;;;;;;;13.13;3.40;;;18.00;95.60;;;;;;5011268;28;20485;-49
2023/09/30 11:31:42;;;;;;;19.40;3.10;;;18.00;90.80;;;;;;5012182;28;21121;-49
2023/09/30 11:34:11;;;;;;;8.53;2.50;;;18.00;93.40;;;;;;5006733;28;20959;-49
2023/09/30 11:36:39;;;;;;;15.73;2.80;;;18.00;99.90;;;;;;5005106;28;20440;-49
2023/09/30 11:39:09;;;;;;;13.43;3.53;;;18.10;99.90;;;;;;5013302;28;20450;-49
2023/09/30 11:41:38;;;;;;;12.43;2.70;;;18.30;99.90;;;;;;5016824;28;20459;-50
2023/09/30 11:44:08;;;;;;;9.60;2.67;;;18.60;99.90;;;;;;5003710;28;20463;-50
2023/09/30 11:46:50;;;;;;;11.30;3.13;;;18.80;99.90;;;;;;5002039;28;20487;-50
2023/09/30 11:49:27;;;;;;;8.80;2.40;;;19.00;99.90;;;;;;5013794;28;20456;-50
2023/09/30 11:51:54;;;;;;;11.47;3.20;;;19.00;99.90;;;;;;4997417;28;20459;-49
2023/09/30 11:54:22;;;;;;;10.37;2.70;;;19.20;99.90;;;;;;5010466;28;20449;-48
2023/09/30 11:56:50;;;;;;;13.33;2.87;;;19.20;99.90;;;;;;5021266;28;20440;-50
2023/09/30 11:59:19;;;;;;;10.47;2.93;;;19.30;99.90;;;;;;5005594;28;20468;-49
2023/09/30 12:01:48;;;;;;;9.10;2.60;;;19.30;99.90;;;;;;5021508;28;20456;-49
2023/09/30 12:04:18;;;;;;;8.53;3.00;;;19.50;99.90;;;;;;4996311;28;20455;-49
2023/09/30 12:06:45;;;;;;;9.60;2.83;;;19.50;99.90;;;;;;5007967;28;20573;-48
2023/09/30 12:09:14;;;;;;;11.80;2.77;;;19.40;99.90;;;;;;5021175;28;20451;-49
2023/09/30 12:11:43;;;;;;;10.97;3.43;;;19.50;99.90;;;;;;5022535;28;20466;-50
2023/09/30 12:14:11;;;;;;;8.57;2.80;;;19.30;99.90;;;;;;5013989;28;20451;-49
2023/09/30 12:16:37;;;;;;;9.30;2.63;;;19.30;99.90;;;;;;4993018;28;20939;-49
2023/09/30 12:19:06;;;;;;;7.33;2.30;;;19.30;99.90;;;;;;5001389;28;20440;-49
2023/09/30 12:21:34;;;;;;;5.57;2.30;;;19.40;99.90;;;;;;5012191;28;20937;-49
2023/09/30 12:24:03;;;;;;;14.67;2.80;;;19.50;99.90;;;;;;5019607;28;20490;-51
2023/09/30 12:26:31;;;;;;;11.70;2.43;;;19.30;99.90;;;;;;5016570;28;20522;-49
2023/09/30 12:28:58;;;;;;;8.97;2.97;;;19.40;99.90;;;;;;5025227;28;20451;-50
2023/09/30 12:31:24;;;;;;;21.40;3.87;;;19.40;99.90;;;;;;4993563;28;20445;-51
2023/09/30 12:33:52;;;;;;;13.87;2.87;;;19.30;99.90;;;;;;5006588;28;20467;-49
2023/09/30 12:36:18;;;;;;;12.97;2.60;;;19.20;99.90;;;;;;5019488;28;20454;-50
2023/09/30 12:38:47;;;;;;;6.17;2.80;;;19.00;99.90;;;;;;5016009;28;20471;-50
2023/09/30 12:41:14;;;;;;;9.37;2.83;;;19.10;99.90;;;;;;5020393;28;21036;-50
2023/09/30 12:43:41;;;;;;;10.63;2.37;;;19.30;99.90;;;;;;5017004;28;20546;-50